Time;durP1;ratioP1;P1;durP2;ratioP2;P2;SDS_P1;SDS_P2;PMS_P1;PMS_P2;Temp;Humidity;BMP_temperature;BMP_pressure;BME280_temperature;BME280_humidity;BME280_pressure;Samples;Min_cycle;Max_cycle;Signal;HPM_P1;HPM_P2
2022/06/29 00:00:04;;;;;;;;;;;;;;;;;;5055517;28;46492;-79
2022/06/29 00:02:30;;;;;;;;;;;;;;;;;;5052690;28;48334;-79
2022/06/29 00:04:56;;;;;;;;;;;;;;;;;;5074336;28;46156;-78
2022/06/29 00:07:23;;;;;;;;;;;;;;;;;;5075622;28;44702;-79
2022/06/29 00:09:49;;;;;;;;;;;;;;;;;;5056955;28;42055;-78
2022/06/29 00:12:15;;;;;;;;;;;;;;;;;;5065769;28;44803;-76
2022/06/29 00:14:41;;;;;;;;;;;;;;;;;;5056953;28;48525;-79
2022/06/29 00:17:12;;;;;;;;;;;;;;;;;;5069639;28;42686;-77
2022/06/29 00:19:38;;;;;;;;;;;;;;;;;;5070918;28;48886;-77
2022/06/29 00:22:04;;;;;;;;;;;;;;;;;;5051536;28;46949;-76
2022/06/29 00:24:30;;;;;;;;;;;;;;;;;;5051449;28;43232;-76
2022/06/29 00:26:57;;;;;;;;;;;;;;;;;;5053403;28;46591;-76
2022/06/29 00:29:23;;;;;;;;;;;;;;;;;;5056454;28;47804;-76
2022/06/29 00:31:49;;;;;;;;;;;;;;;;;;5069638;28;46929;-76
2022/06/29 00:34:15;;;;;;;;;;;;;;;;;;5056065;28;46076;-78
2022/06/29 00:36:42;;;;;;;;;;;;;;;;;;5073256;28;44981;-79
2022/06/29 00:39:08;;;;;;;;;;;;;;;;;;5051699;28;46415;-77
2022/06/29 00:41:34;;;;;;;;;;;;;;;;;;5055088;28;45503;-76
2022/06/29 00:44:00;;;;;;;;;;;;;;;;;;5056305;28;43128;-79
2022/06/29 00:46:27;;;;;;;;;;;;;;;;;;5054431;28;46477;-77
2022/06/29 00:48:53;;;;;;;;;;;;;;;;;;5054913;28;47228;-77
2022/06/29 00:51:19;;;;;;;;;;;;;;;;;;5064020;28;45728;-76
2022/06/29 00:53:45;;;;;;;;;;;;;;;;;;5054992;28;48223;-77
2022/06/29 00:56:12;;;;;;;;;;;;;;;;;;5051792;28;44463;-75
2022/06/29 00:58:38;;;;;;;;;;;;;;;;;;5048822;28;45036;-75
2022/06/29 01:01:04;;;;;;;;;;;;;;;;;;5046222;28;47345;-76
2022/06/29 01:03:32;;;;;;;;;;;;;;;;;;5072375;28;45164;-76
2022/06/29 01:05:58;;;;;;;;;;;;;;;;;;5072283;28;46484;-75
2022/06/29 01:08:24;;;;;;;;;;;;;;;;;;5054347;28;46075;-78
2022/06/29 01:10:51;;;;;;;;;;;;;;;;;;5051977;28;42521;-76
2022/06/29 01:13:17;;;;;;;;;;;;;;;;;;5065826;28;46659;-77
2022/06/29 01:15:43;;;;;;;;;;;;;;;;;;5070521;28;47454;-76
2022/06/29 01:18:09;;;;;;;;;;;;;;;;;;5054511;28;46759;-76
2022/06/29 01:20:36;;;;;;;;;;;;;;;;;;5051122;28;46834;-76
2022/06/29 01:23:02;;;;;;;;;;;;;;;;;;5057164;28;45098;-78
2022/06/29 01:25:28;;;;;;;;;;;;;;;;;;5060324;28;46470;-77
2022/06/29 01:27:55;;;;;;;;;;;;;;;;;;5062988;28;44819;-76
2022/06/29 01:30:21;;;;;;;;;;;;;;;;;;5052227;28;45700;-78
2022/06/29 01:32:47;;;;;;;;;;;;;;;;;;5071289;28;44785;-75
2022/06/29 01:35:16;;;;;;;;;;;;;;;;;;5069992;28;47053;-76
2022/06/29 01:37:42;;;;;;;;;;;;;;;;;;5069397;28;45945;-75
2022/06/29 01:40:08;;;;;;;;;;;;;;;;;;5069699;28;47186;-76
2022/06/29 01:42:34;;;;;;;;;;;;;;;;;;5066970;28;42809;-76
2022/06/29 01:45:01;;;;;;;;;;;;;;;;;;5074048;28;45258;-76
2022/06/29 01:47:27;;;;;;;;;;;;;;;;;;5068571;28;47528;-76
2022/06/29 01:49:53;;;;;;;;;;;;;;;;;;5055496;28;43396;-76
2022/06/29 01:52:20;;;;;;;;;;;;;;;;;;5059594;28;44471;-77
2022/06/29 01:54:46;;;;;;;;;;;;;;;;;;5077798;28;46852;-78
2022/06/29 01:57:12;;;;;;;;;;;;;;;;;;5055507;28;46501;-76
2022/06/29 01:59:38;;;;;;;;;;;;;;;;;;5053047;28;46860;-77
2022/06/29 02:02:05;;;;;;;;;;;;;;;;;;5056248;28;43696;-78
2022/06/29 02:04:31;;;;;;;;;;;;;;;;;;5073518;28;47661;-77
2022/06/29 02:06:57;;;;;;;;;;;;;;;;;;5069988;28;48035;-76
2022/06/29 02:09:23;;;;;;;;;;;;;;;;;;5055215;28;44762;-76
2022/06/29 02:11:50;;;;;;;;;;;;;;;;;;5051440;28;44396;-76
2022/06/29 02:14:16;;;;;;;;;;;;;;;;;;5055020;28;47718;-77
2022/06/29 02:16:42;;;;;;;;;;;;;;;;;;5058973;28;46843;-77
2022/06/29 02:19:09;;;;;;;;;;;;;;;;;;5055408;28;47290;-78
2022/06/29 02:21:35;;;;;;;;;;;;;;;;;;5071534;28;47171;-76
2022/06/29 02:24:01;;;;;;;;;;;;;;;;;;5048722;28;44770;-78
2022/06/29 02:26:27;;;;;;;;;;;;;;;;;;5056069;28;46673;-77
2022/06/29 02:28:54;;;;;;;;;;;;;;;;;;5076569;28;46195;-78
2022/06/29 02:36:50;;;;;;;;;;;;;;;;;;5072177;28;44612;-78
2022/06/29 02:39:17;;;;;;;;;;;;;;;;;;5047942;28;47877;-77
2022/06/29 02:41:43;;;;;;;;;;;;;;;;;;5072702;28;46702;-78
2022/06/29 02:44:09;;;;;;;;;;;;;;;;;;5053139;28;47848;-76
2022/06/29 02:46:35;;;;;;;;;;;;;;;;;;5057442;28;46977;-76
2022/06/29 02:49:02;;;;;;;;;;;;;;;;;;5059385;28;42956;-76
2022/06/29 02:51:28;;;;;;;;;;;;;;;;;;5059377;28;46865;-76
2022/06/29 02:53:54;;;;;;;;;;;;;;;;;;5057638;28;48580;-75
2022/06/29 02:56:20;;;;;;;;;;;;;;;;;;5047791;28;44559;-76
2022/06/29 02:58:47;;;;;;;;;;;;;;;;;;5056947;28;46481;-76
2022/06/29 03:01:13;;;;;;;;;;;;;;;;;;5060095;28;46814;-78
2022/06/29 03:03:39;;;;;;;;;;;;;;;;;;5054644;28;46301;-77
2022/06/29 03:06:06;;;;;;;;;;;;;;;;;;5077768;28;48979;-78
2022/06/29 03:08:33;;;;;;;;;;;;;;;;;;5059636;28;42854;-78
2022/06/29 03:10:59;;;;;;;;;;;;;;;;;;5056114;28;46921;-76
2022/06/29 03:13:26;;;;;;;;;;;;;;;;;;5072271;28;46882;-78
2022/06/29 03:15:52;;;;;;;;;;;;;;;;;;5054167;28;44091;-78
2022/06/29 03:18:18;;;;;;;;;;;;;;;;;;5065818;28;46852;-80
2022/06/29 03:20:45;;;;;;;;;;;;;;;;;;5047870;28;46992;-77
2022/06/29 03:23:14;;;;;;;;;;;;;;;;;;5062833;28;44619;-77
2022/06/29 03:25:40;;;;;;;;;;;;;;;;;;5060578;28;46129;-78
2022/06/29 03:28:07;;;;;;;;;;;;;;;;;;5067274;28;43400;-79
2022/06/29 03:30:33;;;;;;;;;;;;;;;;;;5045364;28;47529;-80
2022/06/29 03:32:59;;;;;;;;;;;;;;;;;;5061646;28;50598;-80
2022/06/29 03:35:25;;;;;;;;;;;;;;;;;;5048494;28;45671;-80
2022/06/29 03:37:52;;;;;;;;;;;;;;;;;;5048346;28;47595;-79
2022/06/29 03:40:18;;;;;;;;;;;;;;;;;;5048182;28;46876;-79
2022/06/29 03:42:44;;;;;;;;;;;;;;;;;;5067462;28;45735;-79
2022/06/29 03:45:10;;;;;;;;;;;;;;;;;;5047755;28;46438;-80
2022/06/29 03:47:38;;;;;;;;;;;;;;;;;;5043633;28;43187;-78
2022/06/29 03:50:05;;;;;;;;;;;;;;;;;;5066369;28;45268;-78
2022/06/29 03:52:31;;;;;;;;;;;;;;;;;;5044132;28;48102;-78
2022/06/29 03:54:58;;;;;;;;;;;;;;;;;;5042443;28;41698;-77
2022/06/29 03:57:24;;;;;;;;;;;;;;;;;;5060823;28;44633;-78
2022/06/29 03:59:50;;;;;;;;;;;;;;;;;;5043801;28;48096;-78
2022/06/29 04:02:16;;;;;;;;;;;;;;;;;;5046448;28;42935;-78
2022/06/29 04:04:43;;;;;;;;;;;;;;;;;;5043656;28;44563;-78
2022/06/29 04:07:09;;;;;;;;;;;;;;;;;;5045607;28;46241;-78
2022/06/29 04:09:35;;;;;;;;;;;;;;;;;;5056081;28;46395;-78
2022/06/29 04:12:02;;;;;;;;;;;;;;;;;;5045489;28;47172;-78
2022/06/29 04:14:28;;;;;;;;;;;;;;;;;;5060051;28;44545;-77
2022/06/29 04:16:54;;;;;;;;;;;;;;;;;;5063053;28;46120;-78
2022/06/29 04:19:21;;;;;;;;;;;;;;;;;;5062863;28;45160;-78
2022/06/29 04:21:47;;;;;;;;;;;;;;;;;;5037674;28;44166;-77
2022/06/29 04:24:13;;;;;;;;;;;;;;;;;;5060957;28;47322;-77
2022/06/29 04:26:40;;;;;;;;;;;;;;;;;;5061729;28;46195;-77
2022/06/29 04:29:06;;;;;;;;;;;;;;;;;;5042701;28;47600;-78
2022/06/29 04:31:33;;;;;;;;;;;;;;;;;;5045636;28;46652;-78
2022/06/29 04:33:59;;;;;;;;;;;;;;;;;;5037945;28;45698;-78
2022/06/29 04:36:25;;;;;;;;;;;;;;;;;;5036587;28;45443;-77
2022/06/29 04:38:51;;;;;;;;;;;;;;;;;;5043237;28;46569;-77
2022/06/29 04:41:19;;;;;;;;;;;;;;;;;;5062284;28;46002;-78
2022/06/29 04:43:46;;;;;;;;;;;;;;;;;;5043560;28;47797;-77
2022/06/29 04:46:22;;;;;;;;;;;;;;;;;;5043117;28;48180;-77
2022/06/29 04:48:49;;;;;;;;;;;;;;;;;;5044073;28;43061;-77
2022/06/29 04:51:18;;;;;;;;;;;;;;;;;;5051424;28;46939;-77
2022/06/29 04:53:44;;;;;;;;;;;;;;;;;;5042725;28;44055;-77
2022/06/29 04:56:11;;;;;;;;;;;;;;;;;;5037231;28;45133;-77
2022/06/29 04:58:37;;;;;;;;;;;;;;;;;;5062890;28;46051;-77
2022/06/29 05:01:03;;;;;;;;;;;;;;;;;;5061728;28;43183;-78
2022/06/29 05:03:31;;;;;;;;;;;;;;;;;;5044531;28;19925;-77
2022/06/29 05:05:57;;;;;;;;;;;;;;;;;;5041490;28;47347;-78
2022/06/29 05:08:23;;;;;;;;;;;;;;;;;;5054615;28;46128;-77
2022/06/29 05:10:49;;;;;;;;;;;;;;;;;;5044630;28;46466;-77
2022/06/29 05:13:16;;;;;;;;;;;;;;;;;;5057446;28;44386;-77
2022/06/29 05:15:42;;;;;;;;;;;;;;;;;;5042883;28;46625;-77
2022/06/29 05:18:08;;;;;;;;;;;;;;;;;;5062616;28;47385;-78
2022/06/29 05:20:36;;;;;;;;;;;;;;;;;;5044529;28;42149;-77
2022/06/29 05:23:04;;;;;;;;;;;;;;;;;;5042309;28;46457;-77
2022/06/29 05:25:30;;;;;;;;;;;;;;;;;;5039423;28;50545;-77
2022/06/29 05:27:57;;;;;;;;;;;;;;;;;;5056204;28;43416;-78
2022/06/29 05:30:23;;;;;;;;;;;;;;;;;;5037617;28;46472;-78
2022/06/29 05:32:50;;;;;;;;;;;;;;;;;;5045051;28;45506;-77
2022/06/29 05:35:16;;;;;;;;;;;;;;;;;;5059406;28;47559;-78
2022/06/29 05:37:43;;;;;;;;;;;;;;;;;;5038185;28;47329;-77
2022/06/29 05:40:09;;;;;;;;;;;;;;;;;;5037658;28;43240;-78
2022/06/29 05:42:35;;;;;;;;;;;;;;;;;;5063199;28;46279;-79
2022/06/29 05:45:01;;;;;;;;;;;;;;;;;;5057944;28;48037;-79
2022/06/29 05:47:28;;;;;;;;;;;;;;;;;;5058156;28;45790;-79
2022/06/29 05:49:57;;;;;;;;;;;;;;;;;;5045213;28;44516;-78
2022/06/29 05:52:23;;;;;;;;;;;;;;;;;;5045942;28;47045;-79
2022/06/29 05:54:50;;;;;;;;;;;;;;;;;;5054631;28;46000;-78
2022/06/29 05:57:17;;;;;;;;;;;;;;;;;;5042400;28;50656;-79
2022/06/29 05:59:43;;;;;;;;;;;;;;;;;;5060891;28;45232;-79
2022/06/29 06:02:09;;;;;;;;;;;;;;;;;;5065838;28;45838;-79
2022/06/29 06:04:36;;;;;;;;;;;;;;;;;;5059900;28;48085;-79
2022/06/29 06:07:03;;;;;;;;;;;;;;;;;;5048807;28;44940;-79
2022/06/29 06:09:29;;;;;;;;;;;;;;;;;;5051825;28;46472;-79
2022/06/29 06:11:55;;;;;;;;;;;;;;;;;;5066642;28;46820;-79
2022/06/29 06:14:22;;;;;;;;;;;;;;;;;;5045369;28;43202;-79
2022/06/29 06:16:48;;;;;;;;;;;;;;;;;;5050945;28;45509;-79
2022/06/29 06:19:14;;;;;;;;;;;;;;;;;;5064114;28;45677;-79
2022/06/29 06:21:41;;;;;;;;;;;;;;;;;;5034604;28;48767;-78
2022/06/29 06:24:07;;;;;;;;;;;;;;;;;;5048857;28;46961;-78
2022/06/29 06:26:33;;;;;;;;;;;;;;;;;;5030210;28;45830;-77
2022/06/29 06:28:59;;;;;;;;;;;;;;;;;;5048201;28;45948;-78
2022/06/29 06:31:26;;;;;;;;;;;;;;;;;;5043420;28;46993;-79
2022/06/29 06:33:53;;;;;;;;;;;;;;;;;;5046771;28;42920;-78
2022/06/29 06:36:19;;;;;;;;;;;;;;;;;;5035777;28;47565;-78
2022/06/29 06:38:45;;;;;;;;;;;;;;;;;;5063092;28;44723;-78
2022/06/29 06:41:27;;;;;;;;;;;;;;;;;;5065933;28;47905;-78
2022/06/29 06:43:53;;;;;;;;;;;;;;;;;;5063572;28;46769;-78
2022/06/29 06:46:19;;;;;;;;;;;;;;;;;;5044759;28;44761;-78
2022/06/29 06:48:46;;;;;;;;;;;;;;;;;;5046257;28;47949;-78
2022/06/29 06:51:12;;;;;;;;;;;;;;;;;;5062532;28;50304;-78
2022/06/29 06:53:38;;;;;;;;;;;;;;;;;;5042038;28;43071;-78
2022/06/29 06:56:04;;;;;;;;;;;;;;;;;;5060419;28;45997;-78
2022/06/29 06:58:31;;;;;;;;;;;;;;;;;;5065636;28;46995;-78
2022/06/29 07:00:57;;;;;;;;;;;;;;;;;;5045743;28;43700;-78
2022/06/29 07:03:24;;;;;;;;;;;;;;;;;;5054252;28;47928;-78
2022/06/29 07:05:50;;;;;;;;;;;;;;;;;;5041371;28;42810;-78
2022/06/29 07:08:16;;;;;;;;;;;;;;;;;;5064895;28;45024;-78
2022/06/29 07:10:43;;;;;;;;;;;;;;;;;;5057714;28;49844;-78
2022/06/29 07:13:09;;;;;;;;;;;;;;;;;;5045081;28;43071;-78
2022/06/29 07:15:35;;;;;;;;;;;;;;;;;;5044585;28;43881;-78
2022/06/29 07:18:01;;;;;;;;;;;;;;;;;;5040731;28;48086;-78
2022/06/29 07:20:28;;;;;;;;;;;;;;;;;;5062768;28;43559;-78
2022/06/29 07:22:55;;;;;;;;;;;;;;;;;;5043772;28;46916;-78
2022/06/29 07:25:21;;;;;;;;;;;;;;;;;;5050836;28;44711;-78
2022/06/29 07:27:47;;;;;;;;;;;;;;;;;;5062396;28;47888;-77
2022/06/29 07:30:13;;;;;;;;;;;;;;;;;;5059268;28;48865;-77
2022/06/29 07:32:40;;;;;;;;;;;;;;;;;;5056614;28;42952;-78
2022/06/29 07:35:06;;;;;;;;;;;;;;;;;;5039126;28;46024;-78
2022/06/29 07:37:32;;;;;;;;;;;;;;;;;;5038250;28;47064;-77
2022/06/29 07:39:59;;;;;;;;;;;;;;;;;;5062540;28;44367;-77
2022/06/29 07:42:38;;;;;;;;;;;;;;;;;;5046037;28;46210;-78
2022/06/29 07:45:04;;;;;;;;;;;;;;;;;;5059396;28;45905;-78
2022/06/29 07:47:31;;;;;;;;;;;;;;;;;;5060792;28;47575;-77
2022/06/29 07:49:58;;;;;;;;;;;;;;;;;;5028198;28;44359;-77
2022/06/29 07:52:24;;;;;;;;;;;;;;;;;;5058850;28;44726;-78
2022/06/29 07:54:50;;;;;;;;;;;;;;;;;;5058366;28;46633;-78
2022/06/29 07:57:17;;;;;;;;;;;;;;;;;;5056523;28;45423;-78
2022/06/29 07:59:43;;;;;;;;;;;;;;;;;;5044040;28;44644;-78
2022/06/29 08:02:10;;;;;;;;;;;;;;;;;;5033916;28;47483;-78
2022/06/29 08:04:37;;;;;;;;;;;;;;;;;;5039971;28;34647;-78
2022/06/29 08:07:23;;;;;;;;;;;;;;;;;;5048904;28;19935;-78
2022/06/29 08:09:49;;;;;;;;;;;;;;;;;;5061196;28;48093;-78
2022/06/29 08:12:16;;;;;;;;;;;;;;;;;;5061332;28;45823;-78
2022/06/29 08:14:43;;;;;;;;;;;;;;;;;;5040711;28;47626;-78
2022/06/29 08:17:09;;;;;;;;;;;;;;;;;;5042468;28;46919;-78
2022/06/29 08:19:35;;;;;;;;;;;;;;;;;;5055528;28;44957;-77
2022/06/29 08:22:01;;;;;;;;;;;;;;;;;;5059915;28;46666;-78
2022/06/29 08:24:28;;;;;;;;;;;;;;;;;;5037431;28;48446;-77
2022/06/29 08:26:54;;;;;;;;;;;;;;;;;;5043194;28;46660;-77
2022/06/29 08:29:40;;;;;;;;;;;;;;;;;;5051325;28;19929;-77
2022/06/29 08:32:06;;;;;;;;;;;;;;;;;;5052924;28;45792;-78
2022/06/29 08:34:39;;;;;;;;;;;;;;;;;;5056627;28;46628;-77
2022/06/29 08:37:05;;;;;;;;;;;;;;;;;;5042913;28;45910;-77
2022/06/29 08:39:32;;;;;;;;;;;;;;;;;;5044885;28;44537;-77
2022/06/29 08:41:58;;;;;;;;;;;;;;;;;;5058823;28;47547;-77
2022/06/29 08:44:24;;;;;;;;;;;;;;;;;;5055356;28;46887;-77
2022/06/29 08:46:50;;;;;;;;;;;;;;;;;;5044203;28;44622;-77
2022/06/29 08:49:17;;;;;;;;;;;;;;;;;;5053642;28;47007;-77
2022/06/29 08:51:43;;;;;;;;;;;;;;;;;;5037452;28;40413;-77
2022/06/29 08:54:09;;;;;;;;;;;;;;;;;;5057968;28;46123;-77
2022/06/29 08:56:35;;;;;;;;;;;;;;;;;;5062313;28;48291;-77
2022/06/29 08:59:03;;;;;;;;;;;;;;;;;;5050520;28;44980;-77
2022/06/29 09:01:29;;;;;;;;;;;;;;;;;;5042662;28;45263;-77
2022/06/29 09:03:55;;;;;;;;;;;;;;;;;;5055986;28;47951;-77
2022/06/29 09:06:22;;;;;;;;;;;;;;;;;;5031429;28;46152;-77
2022/06/29 09:08:48;;;;;;;;;;;;;;;;;;5058389;28;45863;-77
2022/06/29 09:11:14;;;;;;;;;;;;;;;;;;5050732;28;45932;-77
2022/06/29 09:13:41;;;;;;;;;;;;;;;;;;5059556;28;46655;-77
2022/06/29 09:16:08;;;;;;;;;;;;;;;;;;5030675;28;48098;-77
2022/06/29 09:18:34;;;;;;;;;;;;;;;;;;5052147;28;44813;-77
2022/06/29 09:21:01;;;;;;;;;;;;;;;;;;5058011;28;48166;-77
2022/06/29 09:23:27;;;;;;;;;;;;;;;;;;5052927;28;46862;-76
2022/06/29 09:25:53;;;;;;;;;;;;;;;;;;5034009;28;45051;-77
2022/06/29 09:28:19;;;;;;;;;;;;;;;;;;5037759;28;47541;-77
2022/06/29 09:30:46;;;;;;;;;;;;;;;;;;5047739;28;47211;-77
2022/06/29 09:33:12;;;;;;;;;;;;;;;;;;5061335;28;48025;-77
2022/06/29 09:35:39;;;;;;;;;;;;;;;;;;5062335;28;48176;-77
2022/06/29 09:38:05;;;;;;;;;;;;;;;;;;5045412;28;45833;-78
2022/06/29 09:40:31;;;;;;;;;;;;;;;;;;5043012;28;46516;-78
2022/06/29 09:42:57;;;;;;;;;;;;;;;;;;5061000;28;46915;-79
2022/06/29 09:45:24;;;;;;;;;;;;;;;;;;5051164;28;44548;-79
2022/06/29 09:47:50;;;;;;;;;;;;;;;;;;5062040;28;46730;-79
2022/06/29 09:50:16;;;;;;;;;;;;;;;;;;5051602;28;48201;-79
2022/06/29 09:52:45;;;;;;;;;;;;;;;;;;5038925;28;45768;-80
2022/06/29 09:55:12;;;;;;;;;;;;;;;;;;5062291;28;48223;-80
2022/06/29 09:57:38;;;;;;;;;;;;;;;;;;5040400;28;43426;-80
2022/06/29 10:02:51;;;;;;;;;;;;;;;;;;5057103;28;46580;-79
2022/06/29 10:05:17;;;;;;;;;;;;;;;;;;5066351;28;45694;-80
2022/06/29 10:07:44;;;;;;;;;;;;;;;;;;5049188;28;46494;-79
2022/06/29 10:10:10;;;;;;;;;;;;;;;;;;5066058;28;45416;-79
2022/06/29 10:15:21;;;;;;;;;;;;;;;;;;5062688;28;46980;-80
2022/06/29 10:17:49;;;;;;;;;;;;;;;;;;5053415;28;44037;-80
2022/06/29 10:20:15;;;;;;;;;;;;;;;;;;5060829;28;46523;-81
2022/06/29 10:22:41;;;;;;;;;;;;;;;;;;5059495;28;46676;-80
2022/06/29 10:25:09;;;;;;;;;;;;;;;;;;5050075;28;44731;-80
2022/06/29 10:27:35;;;;;;;;;;;;;;;;;;5050550;28;44414;-80
2022/06/29 10:30:01;;;;;;;;;;;;;;;;;;5063710;28;46918;-80
2022/06/29 10:32:27;;;;;;;;;;;;;;;;;;5064953;28;45755;-80
2022/06/29 10:35:06;;;;;;;;;;;;;;;;;;5064174;28;46470;-80
2022/06/29 10:37:32;;;;;;;;;;;;;;;;;;5062557;28;45790;-79
2022/06/29 10:40:04;;;;;;;;;;;;;;;;;;5063112;28;46330;-79
2022/06/29 10:45:18;;;;;;;;;;;;;;;;;;5066156;28;45644;-78
2022/06/29 10:47:45;;;;;;;;;;;;;;;;;;5047698;28;45273;-78
2022/06/29 10:50:11;;;;;;;;;;;;;;;;;;5041433;28;45981;-78
2022/06/29 10:52:38;;;;;;;;;;;;;;;;;;5053819;28;42177;-78
2022/06/29 10:55:07;;;;;;;;;;;;;;;;;;5043569;28;45485;-77
2022/06/29 10:57:36;;;;;;;;;;;;;;;;;;5042253;28;47022;-78
2022/06/29 11:00:08;;;;;;;;;;;;;;;;;;5041620;28;44585;-78
2022/06/29 11:02:35;;;;;;;;;;;;;;;;;;5042738;28;50554;-79
2022/06/29 11:05:01;;;;;;;;;;;;;;;;;;5033729;28;44734;-79
2022/06/29 11:13:06;;;;;;;;;;;;;;;;;;5041822;28;48289;-80
2022/06/29 11:15:42;;;;;;;;;;;;;;;;;;5046434;28;46324;-80
2022/06/29 11:18:11;;;;;;;;;;;;;;;;;;5040342;28;47255;-80
2022/06/29 11:20:38;;;;;;;;;;;;;;;;;;5045211;28;44570;-80
2022/06/29 11:23:04;;;;;;;;;;;;;;;;;;5045275;28;48368;-80
2022/06/29 11:25:30;;;;;;;;;;;;;;;;;;5040371;28;45839;-80
2022/06/29 11:27:57;;;;;;;;;;;;;;;;;;5042729;28;46669;-79
2022/06/29 11:30:23;;;;;;;;;;;;;;;;;;5047716;28;48234;-80
2022/06/29 11:32:49;;;;;;;;;;;;;;;;;;5046887;28;44743;-80
2022/06/29 11:35:16;;;;;;;;;;;;;;;;;;5046617;28;46421;-79
2022/06/29 11:37:42;;;;;;;;;;;;;;;;;;5045969;28;47346;-79
2022/06/29 11:40:08;;;;;;;;;;;;;;;;;;5045631;28;44743;-79
2022/06/29 11:45:19;;;;;;;;;;;;;;;;;;5027178;28;45670;-80
2022/06/29 11:47:46;;;;;;;;;;;;;;;;;;5027911;28;45347;-79
2022/06/29 11:50:12;;;;;;;;;;;;;;;;;;5026997;28;47390;-80
2022/06/29 11:52:38;;;;;;;;;;;;;;;;;;5013316;28;44306;-79
2022/06/29 11:55:05;;;;;;;;;;;;;;;;;;5026095;28;46682;-79
2022/06/29 11:57:31;;;;;;;;;;;;;;;;;;5033997;28;49969;-78
2022/06/29 12:00:00;;;;;;;;;;;;;;;;;;5039586;28;43283;-79
2022/06/29 12:02:27;;;;;;;;;;;;;;;;;;5041346;28;44510;-78
2022/06/29 12:04:54;;;;;;;;;;;;;;;;;;5032593;28;45948;-79
2022/06/29 12:07:22;;;;;;;;;;;;;;;;;;5027048;28;44546;-83
2022/06/29 12:09:49;;;;;;;;;;;;;;;;;;5042205;28;45427;-78
2022/06/29 12:12:18;;;;;;;;;;;;;;;;;;5034207;28;43430;-79
2022/06/29 12:14:54;;;;;;;;;;;;;;;;;;5030636;28;43761;-79
2022/06/29 12:17:23;;;;;;;;;;;;;;;;;;5029419;28;47959;-79
2022/06/29 12:19:56;;;;;;;;;;;;;;;;;;5039647;28;43708;-78
2022/06/29 12:22:31;;;;;;;;;;;;;;;;;;5027181;28;47223;-78
2022/06/29 12:25:02;;;;;;;;;;;;;;;;;;5040379;28;45806;-78
2022/06/29 12:27:37;;;;;;;;;;;;;;;;;;5039280;28;46831;-78
2022/06/29 12:30:16;;;;;;;;;;;;;;;;;;5033138;28;45144;-79
2022/06/29 12:32:47;;;;;;;;;;;;;;;;;;5029811;28;46216;-78
2022/06/29 12:35:14;;;;;;;;;;;;;;;;;;5036240;28;44489;-78
2022/06/29 12:37:43;;;;;;;;;;;;;;;;;;5021589;28;46516;-78
2022/06/29 12:40:13;;;;;;;;;;;;;;;;;;5037410;28;43340;-78
2022/06/29 12:42:51;;;;;;;;;;;;;;;;;;5039022;28;45490;-78
2022/06/29 12:45:24;;;;;;;;;;;;;;;;;;5031263;28;44710;-79
2022/06/29 12:47:52;;;;;;;;;;;;;;;;;;5042566;28;43880;-78
2022/06/29 12:50:19;;;;;;;;;;;;;;;;;;5028361;28;45365;-78
2022/06/29 12:52:46;;;;;;;;;;;;;;;;;;5018016;28;43600;-78
2022/06/29 12:55:20;;;;;;;;;;;;;;;;;;5029750;28;46875;-79
2022/06/29 12:57:53;;;;;;;;;;;;;;;;;;5030733;28;45935;-79
2022/06/29 13:00:23;;;;;;;;;;;;;;;;;;5035044;28;43831;-79
2022/06/29 13:02:54;;;;;;;;;;;;;;;;;;5040263;28;43923;-78
2022/06/29 13:05:22;;;;;;;;;;;;;;;;;;5034780;28;45685;-79
2022/06/29 13:07:54;;;;;;;;;;;;;;;;;;5034769;28;43611;-78
2022/06/29 13:10:31;;;;;;;;;;;;;;;;;;5035025;28;45484;-78
2022/06/29 13:13:11;;;;;;;;;;;;;;;;;;5027895;28;19932;-78
2022/06/29 13:15:41;;;;;;;;;;;;;;;;;;5039623;28;45103;-79
2022/06/29 13:18:19;;;;;;;;;;;;;;;;;;5042763;28;46010;-80
2022/06/29 13:20:50;;;;;;;;;;;;;;;;;;5038621;28;41946;-78
2022/06/29 13:23:24;;;;;;;;;;;;;;;;;;5041760;28;46458;-79
2022/06/29 13:25:54;;;;;;;;;;;;;;;;;;5031398;28;45793;-78
2022/06/29 13:28:29;;;;;;;;;;;;;;;;;;5036116;28;43338;-78
2022/06/29 13:31:02;;;;;;;;;;;;;;;;;;5042456;28;45250;-78
2022/06/29 13:33:34;;;;;;;;;;;;;;;;;;5019510;28;47212;-79
2022/06/29 13:36:07;;;;;;;;;;;;;;;;;;5029408;28;45141;-79
2022/06/29 13:38:35;;;;;;;;;;;;;;;;;;5035352;28;44377;-79
2022/06/29 13:41:15;;;;;;;;;;;;;;;;;;5030294;28;41962;-79
2022/06/29 13:43:52;;;;;;;;;;;;;;;;;;;;;
2022/06/29 13:46:20;;;;;;;;;;;;;;;;;;5033824;28;45521;-78
2022/06/29 13:48:51;;;;;;;;;;;;;;;;;;5028907;28;44229;-78
2022/06/29 13:51:32;;;;;;;;;;;;;;;;;;5005875;28;44975;-78
2022/06/29 13:54:00;;;;;;;;;;;;;;;;;;5035694;28;46918;-78
2022/06/29 13:56:30;;;;;;;;;;;;;;;;;;5035536;28;43497;-78
2022/06/29 13:59:00;;;;;;;;;;;;;;;;;;5047077;28;47741;-79
2022/06/29 14:01:29;;;;;;;;;;;;;;;;;;5049883;28;43322;-79
2022/06/29 14:04:09;;;;;;;;;;;;;;;;;;5052675;28;45275;-79
2022/06/29 14:06:41;;;;;;;;;;;;;;;;;;5058643;28;48977;-79
2022/06/29 14:09:11;;;;;;;;;;;;;;;;;;5051621;28;41802;-79
2022/06/29 14:11:43;;;;;;;;;;;;;;;;;;5049526;28;46821;-79
2022/06/29 14:14:13;;;;;;;;;;;;;;;;;;5053252;28;45211;-79
2022/06/29 14:16:44;;;;;;;;;;;;;;;;;;5051067;28;43620;-78
2022/06/29 14:19:16;;;;;;;;;;;;;;;;;;5062358;28;46818;-79
2022/06/29 14:21:50;;;;;;;;;;;;;;;;;;5063946;28;43593;-78
2022/06/29 14:24:27;;;;;;;;;;;;;;;;;;5050528;28;46809;-78
2022/06/29 14:27:00;;;;;;;;;;;;;;;;;;5039362;28;45876;-78
2022/06/29 14:29:36;;;;;;;;;;;;;;;;;;5056509;28;43020;-78
2022/06/29 14:32:03;;;;;;;;;;;;;;;;;;5052487;28;44899;-79
2022/06/29 14:34:51;;;;;;;;;;;;;;;;;;5057076;28;45662;-78
2022/06/29 14:37:22;;;;;;;;;;;;;;;;;;5047260;28;43593;-78
2022/06/29 14:39:55;;;;;;;;;;;;;;;;;;5062373;28;47043;-78
2022/06/29 14:42:24;;;;;;;;;;;;;;;;;;5062281;28;43194;-78
2022/06/29 14:44:54;;;;;;;;;;;;;;;;;;5041105;28;46621;-77
2022/06/29 14:47:27;;;;;;;;;;;;;;;;;;5058365;28;45934;-78
2022/06/29 14:49:56;;;;;;;;;;;;;;;;;;5032638;28;43399;-78
2022/06/29 14:52:39;;;;;;;;;;;;;;;;;;;;;
2022/06/29 14:55:12;;;;;;;;;;;;;;;;;;5054767;28;46014;-78
2022/06/29 14:57:51;;;;;;;;;;;;;;;;;;5060862;28;43622;-77
2022/06/29 15:00:26;;;;;;;;;;;;;;;;;;5043481;28;45811;-78
2022/06/29 15:03:00;;;;;;;;;;;;;;;;;;5049987;28;47232;-78
2022/06/29 15:05:29;;;;;;;;;;;;;;;;;;5035310;28;45063;-78
2022/06/29 15:08:04;;;;;;;;;;;;;;;;;;5045356;28;45389;-78
2022/06/29 15:10:34;;;;;;;;;;;;;;;;;;5059385;28;43570;-78
2022/06/29 15:13:33;;;;;;;;;;;;;;;;;;5039573;28;19932;-79
2022/06/29 15:16:05;;;;;;;;;;;;;;;;;;5038268;28;45183;-78
2022/06/29 15:18:36;;;;;;;;;;;;;;;;;;5061811;28;44756;-78
2022/06/29 15:21:06;;;;;;;;;;;;;;;;;;5062372;28;45019;-78
2022/06/29 15:23:42;;;;;;;;;;;;;;;;;;5056141;28;48484;-78
2022/06/29 15:26:32;;;;;;;;;;;;;;;;;;5061767;28;19924;-78
2022/06/29 15:29:01;;;;;;;;;;;;;;;;;;5034073;28;46041;-78
2022/06/29 15:31:36;;;;;;;;;;;;;;;;;;5052047;28;43820;-76
2022/06/29 15:39:46;;;;;;;;;;;;;;;;;;5052236;28;41787;-77
2022/06/29 15:42:21;;;;;;;;;;;;;;;;;;5043646;28;47928;-77
2022/06/29 15:44:51;;;;;;;;;;;;;;;;;;5051404;28;46012;-78
2022/06/29 15:47:19;;;;;;;;;;;;;;;;;;5045485;28;44743;-78
2022/06/29 15:49:45;;;;;;;;;;;;;;;;;;5045460;28;45065;-77
2022/06/29 15:52:14;;;;;;;;;;;;;;;;;;5045486;28;45975;-78
2022/06/29 15:57:26;;;;;;;;;;;;;;;;;;5060085;28;47336;-77
2022/06/29 15:59:52;;;;;;;;;;;;;;;;;;5060002;28;46063;-76
2022/06/29 16:02:19;;;;;;;;;;;;;;;;;;5046499;28;47057;-77
2022/06/29 16:04:45;;;;;;;;;;;;;;;;;;5041421;28;45967;-77
2022/06/29 16:07:11;;;;;;;;;;;;;;;;;;5049043;28;46467;-77
2022/06/29 16:09:37;;;;;;;;;;;;;;;;;;5062650;28;47506;-78
2022/06/29 16:12:07;;;;;;;;;;;;;;;;;;5061854;28;44856;-78
2022/06/29 16:14:33;;;;;;;;;;;;;;;;;;5041408;28;46722;-78
2022/06/29 16:17:00;;;;;;;;;;;;;;;;;;5060926;28;44295;-78
2022/06/29 16:19:26;;;;;;;;;;;;;;;;;;5042982;28;46190;-78
2022/06/29 16:22:02;;;;;;;;;;;;;;;;;;5060374;28;47656;-78
2022/06/29 16:24:29;;;;;;;;;;;;;;;;;;5046043;28;46032;-77
2022/06/29 16:26:57;;;;;;;;;;;;;;;;;;5045045;28;43375;-78
2022/06/29 16:29:23;;;;;;;;;;;;;;;;;;5062021;28;46419;-78
2022/06/29 16:31:49;;;;;;;;;;;;;;;;;;5058132;28;47003;-78
2022/06/29 16:34:16;;;;;;;;;;;;;;;;;;5060773;28;46156;-77
2022/06/29 16:36:42;;;;;;;;;;;;;;;;;;5047019;28;46764;-77
2022/06/29 16:39:08;;;;;;;;;;;;;;;;;;5049440;28;43984;-78
2022/06/29 16:41:34;;;;;;;;;;;;;;;;;;5059272;28;46329;-77
2022/06/29 16:44:02;;;;;;;;;;;;;;;;;;5050485;28;48046;-76
2022/06/29 16:46:28;;;;;;;;;;;;;;;;;;5059727;28;44573;-77
2022/06/29 16:48:55;;;;;;;;;;;;;;;;;;5028235;28;49051;-78
2022/06/29 16:51:21;;;;;;;;;;;;;;;;;;5062142;28;48126;-79
2022/06/29 16:53:47;;;;;;;;;;;;;;;;;;5062575;28;44726;-79
2022/06/29 16:56:14;;;;;;;;;;;;;;;;;;5059815;28;47027;-77
2022/06/29 16:58:40;;;;;;;;;;;;;;;;;;5055799;28;44739;-77
2022/06/29 17:01:06;;;;;;;;;;;;;;;;;;5060337;28;44017;-78
2022/06/29 17:03:32;;;;;;;;;;;;;;;;;;5058105;28;48413;-78
2022/06/29 17:05:59;;;;;;;;;;;;;;;;;;5060160;28;43425;-78
2022/06/29 17:08:25;;;;;;;;;;;;;;;;;;5061460;28;46731;-77
2022/06/29 17:10:51;;;;;;;;;;;;;;;;;;5054117;28;48112;-78
2022/06/29 17:13:18;;;;;;;;;;;;;;;;;;5040392;28;45796;-78
2022/06/29 17:15:44;;;;;;;;;;;;;;;;;;5040474;28;47738;-78
2022/06/29 17:18:11;;;;;;;;;;;;;;;;;;5059917;28;45926;-78
2022/06/29 17:20:37;;;;;;;;;;;;;;;;;;5058629;28;47645;-77